createdAt,value
2023-10-19T00:01:13.119Z,11.30
2023-10-19T00:03:40.212Z,11.30
2023-10-19T00:06:07.247Z,11.20
2023-10-19T00:08:43.339Z,11.30
2023-10-19T00:11:10.998Z,11.20
2023-10-19T00:13:40.049Z,11.20
2023-10-19T00:16:13.881Z,11.20
2023-10-19T00:18:44.409Z,11.20
2023-10-19T00:21:21.620Z,11.20
2023-10-19T00:23:50.181Z,11.20
2023-10-19T00:26:20.715Z,11.20
2023-10-19T00:28:58.734Z,11.30
2023-10-19T00:31:30.059Z,11.30
2023-10-19T00:33:58.731Z,11.30
2023-10-19T00:36:27.363Z,11.30
2023-10-19T00:38:55.070Z,11.30
2023-10-19T00:41:32.691Z,11.30
2023-10-19T00:44:08.534Z,11.30
2023-10-19T00:46:44.841Z,11.30
2023-10-19T00:49:16.206Z,11.30
2023-10-19T00:51:56.358Z,11.30
2023-10-19T00:54:44.912Z,11.30
2023-10-19T00:57:13.144Z,11.30
2023-10-19T00:59:54.790Z,11.40
2023-10-19T01:02:25.795Z,11.40
2023-10-19T01:04:58.010Z,11.40
2023-10-19T01:07:28.952Z,11.50
2023-10-19T01:09:58.062Z,11.50
2023-10-19T01:12:36.446Z,11.50
2023-10-19T01:15:13.907Z,11.50
2023-10-19T01:17:45.232Z,11.60
2023-10-19T01:20:35.022Z,11.50
2023-10-19T01:23:09.113Z,11.60
2023-10-19T01:25:56.948Z,11.60
2023-10-19T01:28:51.080Z,11.60
2023-10-19T01:31:31.314Z,11.60
2023-10-19T01:34:00.244Z,11.60
2023-10-19T01:36:28.405Z,11.60
2023-10-19T01:39:02.052Z,11.60
2023-10-19T01:41:32.384Z,11.60
2023-10-19T01:44:05.975Z,11.60
2023-10-19T01:46:35.383Z,11.60
2023-10-19T01:49:04.193Z,11.60
2023-10-19T01:51:44.592Z,11.70
2023-10-19T01:54:12.514Z,11.70
2023-10-19T01:56:40.365Z,11.70
2023-10-19T01:59:10.400Z,11.70
2023-10-19T02:01:39.427Z,11.70
2023-10-19T02:04:10.451Z,11.70
2023-10-19T02:06:40.192Z,11.70
2023-10-19T02:09:19.409Z,11.70
2023-10-19T02:11:48.675Z,11.70
2023-10-19T02:14:20.735Z,11.70
2023-10-19T02:17:00.563Z,11.70
2023-10-19T02:19:30.090Z,11.70
2023-10-19T02:21:59.963Z,11.70
2023-10-19T02:27:30.212Z,11.70
2023-10-19T02:30:02.781Z,11.70
2023-10-19T02:32:30.256Z,11.70
2023-10-19T02:34:58.550Z,11.70
2023-10-19T02:37:26.518Z,11.70
2023-10-19T02:39:53.788Z,11.70
2023-10-19T02:42:23.441Z,11.80
2023-10-19T02:44:51.934Z,11.80
2023-10-19T02:47:20.259Z,11.80
2023-10-19T02:49:52.731Z,11.80
2023-10-19T02:52:21.089Z,11.80
2023-10-19T02:54:48.350Z,11.90
2023-10-19T02:57:15.929Z,11.90
2023-10-19T02:59:43.137Z,12.00
2023-10-19T03:02:12.942Z,12.00
2023-10-19T03:04:43.296Z,12.00
2023-10-19T03:07:13.321Z,12.10
2023-10-19T03:09:40.672Z,12.10
2023-10-19T03:12:11.801Z,12.10
2023-10-19T03:14:39.090Z,12.20
2023-10-19T03:17:09.741Z,12.20
2023-10-19T03:19:37.109Z,12.20
2023-10-19T03:22:07.288Z,12.30
2023-10-19T03:24:37.947Z,12.30
2023-10-19T03:27:14.450Z,12.30
2023-10-19T03:29:43.352Z,12.40
2023-10-19T03:32:10.830Z,12.40
2023-10-19T03:34:40.230Z,12.40
2023-10-19T03:37:11.254Z,12.40
2023-10-19T03:39:39.205Z,12.50
2023-10-19T03:42:07.498Z,12.50
2023-10-19T03:44:55.445Z,12.50
2023-10-19T03:47:27.136Z,12.60
2023-10-19T03:49:55.005Z,12.60
2023-10-19T03:52:22.420Z,12.60
2023-10-19T03:54:50.723Z,12.60
2023-10-19T03:57:20.793Z,12.70
2023-10-19T03:59:53.896Z,12.70
2023-10-19T04:02:31.347Z,12.70
2023-10-19T04:04:59.137Z,12.70
2023-10-19T04:07:32.500Z,12.70
2023-10-19T04:09:59.990Z,12.70
2023-10-19T04:12:32.257Z,12.70
2023-10-19T04:15:12.541Z,12.70
2023-10-19T04:17:40.835Z,12.70
2023-10-19T04:20:18.548Z,12.60
2023-10-19T04:22:50.135Z,12.60
2023-10-19T04:25:20.248Z,12.60
2023-10-19T04:27:48.272Z,12.60
2023-10-19T04:30:23.534Z,12.50
2023-10-19T04:32:52.016Z,12.50
2023-10-19T04:35:25.729Z,12.50
2023-10-19T04:37:55.974Z,12.50
2023-10-19T04:40:25.344Z,12.50
2023-10-19T04:42:57.282Z,12.40
2023-10-19T04:45:24.627Z,12.50
2023-10-19T04:47:57.761Z,12.40
2023-10-19T04:50:24.852Z,12.40
2023-10-19T04:52:52.147Z,12.40
2023-10-19T04:55:19.705Z,12.40
2023-10-19T04:57:46.712Z,12.40
2023-10-19T05:00:16.229Z,12.30
2023-10-19T05:02:45.853Z,12.30
2023-10-19T05:05:15.010Z,12.30
2023-10-19T05:07:42.085Z,12.30
2023-10-19T05:10:10.018Z,12.20
2023-10-19T05:12:37.000Z,12.20
2023-10-19T05:15:07.117Z,12.20
2023-10-19T05:17:34.211Z,12.20
2023-10-19T05:20:01.729Z,12.20
2023-10-19T05:22:34.420Z,12.20
2023-10-19T05:25:20.774Z,12.10
2023-10-19T05:27:50.887Z,12.10
2023-10-19T05:30:19.276Z,12.10
2023-10-19T05:32:48.032Z,12.10
2023-10-19T05:35:24.209Z,12.00
2023-10-19T05:37:51.561Z,12.00
2023-10-19T05:40:20.371Z,12.00
2023-10-19T05:42:47.882Z,12.00
2023-10-19T05:45:17.746Z,12.00
2023-10-19T05:47:47.690Z,12.00
2023-10-19T05:50:17.327Z,11.90
2023-10-19T05:52:45.290Z,11.90
2023-10-19T05:55:12.931Z,11.90
2023-10-19T05:57:44.152Z,11.90
2023-10-19T06:00:15.320Z,11.80
2023-10-19T06:02:47.367Z,11.80
2023-10-19T06:05:16.799Z,11.80
2023-10-19T06:07:49.060Z,11.80
2023-10-19T06:10:21.512Z,11.80
2023-10-19T06:12:51.103Z,11.80
2023-10-19T06:15:22.064Z,11.70
2023-10-19T06:17:50.821Z,11.70
2023-10-19T06:20:21.244Z,11.70
2023-10-19T06:22:51.923Z,11.70
2023-10-19T06:25:25.872Z,11.60
2023-10-19T06:27:55.315Z,11.60
2023-10-19T06:30:24.261Z,11.60
2023-10-19T06:32:58.527Z,11.60
2023-10-19T06:35:25.625Z,11.60
2023-10-19T06:37:56.427Z,11.60
2023-10-19T06:40:27.781Z,11.60
2023-10-19T06:42:59.598Z,11.60
2023-10-19T06:45:27.067Z,11.60
2023-10-19T06:47:54.338Z,11.60
2023-10-19T06:50:23.440Z,11.50
2023-10-19T06:52:51.222Z,11.50
2023-10-19T06:55:21.061Z,11.60
2023-10-19T06:57:53.883Z,11.50
2023-10-19T07:00:23.377Z,11.50
2023-10-19T07:02:54.512Z,11.50
2023-10-19T07:05:23.672Z,11.50
2023-10-19T07:07:56.326Z,11.50
2023-10-19T07:10:25.299Z,11.50
2023-10-19T07:13:02.133Z,11.50
2023-10-19T07:15:31.322Z,11.50
2023-10-19T07:17:59.722Z,11.50
2023-10-19T07:20:27.805Z,11.50
2023-10-19T07:23:07.025Z,11.50
2023-10-19T07:25:44.756Z,11.50
2023-10-19T07:28:17.231Z,11.50
2023-10-19T07:30:45.346Z,11.50
2023-10-19T07:33:19.375Z,11.50
2023-10-19T07:35:48.195Z,11.60
2023-10-19T07:38:15.995Z,11.60
2023-10-19T07:40:46.484Z,11.60
2023-10-19T07:43:13.587Z,11.60
2023-10-19T07:45:44.493Z,11.60
2023-10-19T07:48:11.983Z,11.60
2023-10-19T07:50:43.762Z,11.60
2023-10-19T07:53:11.709Z,11.70
2023-10-19T07:55:40.286Z,11.70
2023-10-19T07:58:08.145Z,11.70
2023-10-19T08:00:35.639Z,11.70
2023-10-19T08:03:07.490Z,11.70
2023-10-19T08:05:35.442Z,11.70
2023-10-19T08:08:10.825Z,11.60
2023-10-19T08:10:40.899Z,11.60
2023-10-19T08:13:09.366Z,11.60
2023-10-19T08:15:36.302Z,11.60
2023-10-19T08:18:03.329Z,11.60
2023-10-19T08:20:33.427Z,11.60
2023-10-19T08:23:06.548Z,11.50
2023-10-19T08:25:48.601Z,11.60
2023-10-19T08:28:19.797Z,11.60
2023-10-19T08:30:58.104Z,11.50
2023-10-19T08:33:27.454Z,11.50
2023-10-19T08:35:55.372Z,11.50
2023-10-19T08:38:23.070Z,11.50
2023-10-19T08:40:54.539Z,11.50
2023-10-19T08:43:22.778Z,11.50
2023-10-19T08:45:50.529Z,11.50
2023-10-19T08:48:18.332Z,11.50
2023-10-19T08:50:47.677Z,11.50
2023-10-19T08:53:15.679Z,11.50
2023-10-19T08:55:49.275Z,11.50
2023-10-19T08:58:19.330Z,11.50
2023-10-19T09:00:49.120Z,11.50
2023-10-19T09:03:18.633Z,11.50
2023-10-19T09:05:48.193Z,11.60
2023-10-19T09:08:21.128Z,11.60
2023-10-19T09:10:50.286Z,11.60
2023-10-19T09:13:20.654Z,11.60
2023-10-19T09:15:50.710Z,11.70
2023-10-19T09:18:23.368Z,11.70
2023-10-19T09:20:55.450Z,11.70
2023-10-19T09:23:24.133Z,11.70
2023-10-19T09:25:54.146Z,11.80
2023-10-19T09:28:23.257Z,11.80
2023-10-19T09:30:51.744Z,11.80
2023-10-19T09:33:19.449Z,11.80
2023-10-19T09:35:51.806Z,11.80
2023-10-19T09:38:28.627Z,11.80
2023-10-19T09:41:01.436Z,11.90
2023-10-19T09:43:38.563Z,11.90
2023-10-19T09:46:10.321Z,11.90
2023-10-19T09:48:47.023Z,11.90
2023-10-19T09:51:17.846Z,12.00
2023-10-19T09:53:56.728Z,12.00
2023-10-19T09:56:33.712Z,12.00
2023-10-19T09:59:07.435Z,12.00
2023-10-19T10:02:06.029Z,12.00
2023-10-19T10:04:41.008Z,12.10
2023-10-19T10:07:10.672Z,12.10
2023-10-19T10:09:41.625Z,12.20
2023-10-19T10:12:26.388Z,12.20
2023-10-19T10:14:59.777Z,12.20
2023-10-19T10:17:28.351Z,12.30
2023-10-19T10:19:58.336Z,12.40
2023-10-19T10:22:25.408Z,12.40
2023-10-19T10:24:57.228Z,12.40
2023-10-19T10:27:24.837Z,12.50
2023-10-19T10:30:00.283Z,12.50
2023-10-19T10:32:51.859Z,12.50
2023-10-19T10:35:37.776Z,12.60
2023-10-19T10:38:15.761Z,12.60
2023-10-19T10:40:51.559Z,12.60
2023-10-19T10:43:20.016Z,12.70
2023-10-19T10:45:46.993Z,12.70
2023-10-19T10:48:14.826Z,12.70
2023-10-19T10:50:42.884Z,12.80
2023-10-19T10:53:12.743Z,12.80
2023-10-19T10:55:40.706Z,12.80
2023-10-19T10:58:08.009Z,12.90
2023-10-19T11:00:35.676Z,12.90
2023-10-19T11:03:06.168Z,13.00
2023-10-19T11:05:34.684Z,13.00
2023-10-19T11:08:10.849Z,13.00
2023-10-19T11:10:38.242Z,13.10
2023-10-19T11:13:10.028Z,13.10
2023-10-19T11:15:38.277Z,13.20
2023-10-19T11:18:08.690Z,13.20
2023-10-19T11:20:36.886Z,13.30
2023-10-19T11:23:04.575Z,13.30
2023-10-19T11:25:33.414Z,13.40
2023-10-19T11:28:17.380Z,13.40
2023-10-19T11:30:44.720Z,13.50
2023-10-19T11:33:12.333Z,13.50
2023-10-19T11:35:39.860Z,13.50
2023-10-19T11:38:07.617Z,13.60
2023-10-19T11:40:34.920Z,13.60
2023-10-19T11:43:02.263Z,13.70
2023-10-19T11:45:30.328Z,13.60
2023-10-19T11:47:58.420Z,13.70
2023-10-19T11:50:25.931Z,13.70
2023-10-19T11:52:54.248Z,13.70
2023-10-19T11:55:22.797Z,13.70
2023-10-19T11:57:50.238Z,13.70
2023-10-19T12:00:25.018Z,13.80
2023-10-19T12:02:53.509Z,13.80
2023-10-19T12:05:20.748Z,13.90
2023-10-19T12:07:47.736Z,13.90
2023-10-19T12:10:14.752Z,13.90
2023-10-19T12:12:58.515Z,13.90
2023-10-19T12:15:31.154Z,13.90
2023-10-19T12:17:58.754Z,13.90
2023-10-19T12:20:25.963Z,13.90
2023-10-19T12:22:56.395Z,13.90
2023-10-19T12:25:39.494Z,13.90
2023-10-19T12:28:07.062Z,13.90
2023-10-19T12:30:38.123Z,13.90
2023-10-19T12:33:14.687Z,13.90
2023-10-19T12:35:46.249Z,13.90
2023-10-19T12:38:19.129Z,13.90
2023-10-19T12:40:48.783Z,13.90
2023-10-19T12:43:16.581Z,13.90
2023-10-19T12:45:45.389Z,13.90
2023-10-19T12:48:12.766Z,13.90
2023-10-19T12:50:40.362Z,13.90
2023-10-19T12:53:08.021Z,14.00
2023-10-19T12:55:35.859Z,14.00
2023-10-19T12:58:08.599Z,14.00
2023-10-19T13:00:45.064Z,14.10
2023-10-19T13:03:20.140Z,14.20
2023-10-19T13:05:48.084Z,14.20
2023-10-19T13:08:16.072Z,14.20
2023-10-19T13:10:44.975Z,14.20
2023-10-19T13:13:14.435Z,14.20
2023-10-19T13:15:43.461Z,14.30
2023-10-19T13:18:11.742Z,14.30
2023-10-19T13:20:40.089Z,14.30
2023-10-19T13:23:12.793Z,14.30
2023-10-19T13:25:47.656Z,14.30
2023-10-19T13:28:15.458Z,14.40
2023-10-19T13:30:50.616Z,14.30
2023-10-19T13:33:19.559Z,14.40
2023-10-19T13:35:47.263Z,14.30
2023-10-19T13:38:18.234Z,14.30
2023-10-19T13:40:50.150Z,14.40
2023-10-19T13:43:21.188Z,14.40
2023-10-19T13:45:48.994Z,14.40
2023-10-19T13:48:16.770Z,14.40
2023-10-19T13:50:49.696Z,14.40
2023-10-19T13:53:19.502Z,14.50
2023-10-19T13:55:46.946Z,14.50
2023-10-19T13:58:14.248Z,14.50
2023-10-19T14:00:48.915Z,14.50
2023-10-19T14:03:16.862Z,14.50
2023-10-19T14:05:49.663Z,14.50
2023-10-19T14:08:19.031Z,14.60
2023-10-19T14:10:46.348Z,14.60
2023-10-19T14:13:14.142Z,14.60
2023-10-19T14:15:41.825Z,14.60
2023-10-19T14:18:09.485Z,14.60
2023-10-19T14:20:39.972Z,14.60
2023-10-19T14:23:07.184Z,14.60
2023-10-19T14:25:39.594Z,14.60
2023-10-19T14:28:08.427Z,14.60
2023-10-19T14:30:35.762Z,14.60
2023-10-19T14:33:03.596Z,14.60
2023-10-19T14:35:30.937Z,14.60
2023-10-19T14:38:00.258Z,14.60
2023-10-19T14:40:29.426Z,14.60
2023-10-19T14:42:58.108Z,14.60
2023-10-19T14:45:30.006Z,14.50
2023-10-19T14:48:02.626Z,14.50
2023-10-19T14:50:31.057Z,14.50
2023-10-19T14:52:59.088Z,14.50
2023-10-19T14:55:26.773Z,14.60
2023-10-19T14:57:55.829Z,14.60
2023-10-19T15:00:27.371Z,14.50
2023-10-19T15:02:56.515Z,14.50
2023-10-19T15:05:28.658Z,14.50
2023-10-19T15:07:56.804Z,14.60
2023-10-19T15:10:28.945Z,14.60
2023-10-19T15:12:57.242Z,14.60
2023-10-19T15:15:24.427Z,14.50
2023-10-19T15:17:54.542Z,14.50
2023-10-19T15:20:26.370Z,14.50
2023-10-19T15:22:55.320Z,14.50
2023-10-19T15:25:25.473Z,14.50
2023-10-19T15:27:53.615Z,14.50
2023-10-19T15:30:22.419Z,14.40
2023-10-19T15:32:51.168Z,14.50
2023-10-19T15:35:23.291Z,14.40
2023-10-19T15:37:57.779Z,14.40
2023-10-19T15:40:26.428Z,14.40
2023-10-19T15:42:55.210Z,14.40
2023-10-19T15:45:24.500Z,14.40
2023-10-19T15:47:59.796Z,14.40
2023-10-19T15:50:27.522Z,14.40
2023-10-19T15:52:57.002Z,14.50
2023-10-19T15:55:24.212Z,14.40
2023-10-19T15:57:52.207Z,14.40
2023-10-19T16:00:21.962Z,14.40
2023-10-19T16:02:53.173Z,14.40
2023-10-19T16:05:20.748Z,14.40
2023-10-19T16:07:48.394Z,14.40
2023-10-19T16:10:16.398Z,14.40
2023-10-19T16:12:44.443Z,14.30
2023-10-19T16:15:13.590Z,14.30
2023-10-19T16:17:42.346Z,14.30
2023-10-19T16:20:16.740Z,14.40
2023-10-19T16:22:44.422Z,14.30
2023-10-19T16:25:12.404Z,14.40
2023-10-19T16:27:39.936Z,14.30
2023-10-19T16:30:13.869Z,14.30
2023-10-19T16:32:42.162Z,14.30
2023-10-19T16:35:10.722Z,14.30
2023-10-19T16:37:38.120Z,14.30
2023-10-19T16:40:08.668Z,14.30
2023-10-19T16:42:35.885Z,14.30
2023-10-19T16:45:04.877Z,14.30
2023-10-19T16:47:32.335Z,14.30
2023-10-19T16:50:00.463Z,14.30
2023-10-19T16:52:28.227Z,14.30
2023-10-19T16:54:55.541Z,14.30
2023-10-19T16:57:23.149Z,14.30
2023-10-19T16:59:53.702Z,14.30
2023-10-19T17:02:21.577Z,14.30
2023-10-19T17:04:53.173Z,14.30
2023-10-19T17:07:20.429Z,14.30
2023-10-19T17:09:47.687Z,14.30
2023-10-19T17:12:15.016Z,14.30
2023-10-19T17:14:43.257Z,14.30
2023-10-19T17:17:10.358Z,14.30
2023-10-19T17:19:37.482Z,14.30
2023-10-19T17:22:04.800Z,14.30
2023-10-19T17:24:32.060Z,14.30
2023-10-19T17:27:02.346Z,14.30
2023-10-19T17:29:29.661Z,14.30
2023-10-19T17:31:59.274Z,14.30
2023-10-19T17:34:28.092Z,14.30
2023-10-19T17:36:55.323Z,14.30
2023-10-19T17:39:24.175Z,14.30
2023-10-19T17:41:51.212Z,14.30
2023-10-19T17:44:19.378Z,14.20
2023-10-19T17:46:47.279Z,14.20
2023-10-19T17:49:16.672Z,14.30
2023-10-19T17:51:43.786Z,14.20
2023-10-19T17:54:12.275Z,14.20
2023-10-19T17:56:39.440Z,14.20
2023-10-19T17:59:09.175Z,14.20
2023-10-19T18:01:37.289Z,14.20
2023-10-19T18:04:05.231Z,14.20
2023-10-19T18:06:32.335Z,14.20
2023-10-19T18:09:00.816Z,14.20
2023-10-19T18:11:28.679Z,14.20
2023-10-19T18:13:56.200Z,14.20
2023-10-19T18:16:23.289Z,14.20
2023-10-19T18:18:50.432Z,14.20
2023-10-19T18:21:17.551Z,14.20
2023-10-19T18:23:47.906Z,14.20
2023-10-19T18:26:17.095Z,14.20
2023-10-19T18:28:45.570Z,14.20
2023-10-19T18:31:12.885Z,14.10
2023-10-19T18:33:42.165Z,14.10
2023-10-19T18:36:15.121Z,14.10
2023-10-19T18:38:42.856Z,14.10
2023-10-19T18:41:10.944Z,14.10
2023-10-19T18:43:38.013Z,14.10
2023-10-19T18:46:05.436Z,14.10
2023-10-19T18:48:33.089Z,14.10
2023-10-19T18:51:02.525Z,14.10
2023-10-19T18:53:29.983Z,14.10
2023-10-19T18:55:58.436Z,14.10
2023-10-19T18:58:27.016Z,14.10
2023-10-19T19:00:55.044Z,14.10
2023-10-19T19:03:24.011Z,14.10
2023-10-19T19:06:01.666Z,14.10
2023-10-19T19:08:36.794Z,14.10
2023-10-19T19:11:12.480Z,14.10
2023-10-19T19:13:41.474Z,14.10
2023-10-19T19:16:08.885Z,14.10
2023-10-19T19:18:37.261Z,14.10
2023-10-19T19:21:09.279Z,14.10
2023-10-19T19:23:41.749Z,14.20
2023-10-19T19:26:10.279Z,14.10
2023-10-19T19:28:40.340Z,14.10
2023-10-19T19:31:07.844Z,14.10
2023-10-19T19:33:39.197Z,14.10
2023-10-19T19:36:06.424Z,14.10
2023-10-19T19:38:33.703Z,14.10
2023-10-19T19:41:00.859Z,14.10
2023-10-19T19:43:28.585Z,14.10
2023-10-19T19:45:55.838Z,14.10
2023-10-19T19:48:24.395Z,14.00
2023-10-19T19:50:52.113Z,14.00
2023-10-19T19:53:19.229Z,14.00
2023-10-19T19:55:48.112Z,14.00
2023-10-19T19:58:22.533Z,14.00
2023-10-19T20:00:52.352Z,14.00
2023-10-19T20:03:19.630Z,13.90
2023-10-19T20:05:46.832Z,13.90
2023-10-19T20:08:14.244Z,13.90
2023-10-19T20:10:44.238Z,13.90
2023-10-19T20:13:15.552Z,13.90
2023-10-19T20:15:43.860Z,13.80
2023-10-19T20:18:19.746Z,13.90
2023-10-19T20:20:47.273Z,13.90
2023-10-19T20:23:14.825Z,13.80
2023-10-19T20:25:41.946Z,13.80
2023-10-19T20:28:10.247Z,13.80
2023-10-19T20:30:37.954Z,13.80
2023-10-19T20:33:06.745Z,13.90
2023-10-19T20:35:34.969Z,13.90
2023-10-19T20:38:04.043Z,13.90
2023-10-19T20:40:37.546Z,13.90
2023-10-19T20:43:06.561Z,13.90
2023-10-19T20:45:33.771Z,13.90
2023-10-19T20:48:03.030Z,13.90
2023-10-19T20:50:30.448Z,13.90
2023-10-19T20:53:02.057Z,13.90
2023-10-19T20:55:29.311Z,13.90
2023-10-19T20:57:56.573Z,13.90
2023-10-19T21:00:23.968Z,13.90
2023-10-19T21:02:51.950Z,13.90
2023-10-19T21:05:20.627Z,13.90
2023-10-19T21:07:48.689Z,13.90
2023-10-19T21:10:17.882Z,13.90
2023-10-19T21:12:45.259Z,13.90
2023-10-19T21:15:14.165Z,13.90
2023-10-19T21:17:46.614Z,13.90
2023-10-19T21:20:16.008Z,13.90
2023-10-19T21:23:19.223Z,13.90
2023-10-19T21:25:46.232Z,13.90
2023-10-19T21:28:13.416Z,13.90
2023-10-19T21:30:41.245Z,13.90
2023-10-19T21:33:11.616Z,13.90
2023-10-19T21:35:40.631Z,13.90
2023-10-19T21:38:07.946Z,13.90
2023-10-19T21:40:36.810Z,13.80
2023-10-19T21:43:03.985Z,13.80
2023-10-19T21:45:31.361Z,13.80
2023-10-19T21:47:58.510Z,13.80
2023-10-19T21:50:26.454Z,13.80
2023-10-19T21:52:53.469Z,13.80
2023-10-19T21:55:20.474Z,13.80
2023-10-19T21:57:47.649Z,13.80
2023-10-19T22:00:24.442Z,13.80
2023-10-19T22:03:09.208Z,13.80
2023-10-19T22:05:39.181Z,13.80
2023-10-19T22:08:10.526Z,13.80
2023-10-19T22:10:38.856Z,13.80
2023-10-19T22:13:06.179Z,13.80
2023-10-19T22:15:33.577Z,13.80
2023-10-19T22:18:00.688Z,13.80
2023-10-19T22:20:27.930Z,13.80
2023-10-19T22:22:55.611Z,13.80
2023-10-19T22:25:23.726Z,13.80
2023-10-19T22:27:54.295Z,13.80
2023-10-19T22:30:23.381Z,13.80
2023-10-19T22:32:52.454Z,13.70
2023-10-19T22:35:20.182Z,13.70
2023-10-19T22:37:48.591Z,13.70
2023-10-19T22:40:16.005Z,13.70
2023-10-19T22:42:43.398Z,13.70
2023-10-19T22:45:13.843Z,13.70
2023-10-19T22:47:42.407Z,13.70
2023-10-19T22:50:11.741Z,13.70
2023-10-19T22:52:39.278Z,13.70
2023-10-19T22:55:07.599Z,13.70
2023-10-19T22:57:34.756Z,13.70
2023-10-19T23:00:01.972Z,13.80
2023-10-19T23:02:29.198Z,13.70
2023-10-19T23:04:56.423Z,13.70
2023-10-19T23:07:23.553Z,13.70
2023-10-19T23:09:52.636Z,13.80
2023-10-19T23:12:19.634Z,13.80
2023-10-19T23:14:47.814Z,13.80
2023-10-19T23:17:24.030Z,13.80
2023-10-19T23:19:54.243Z,13.80
2023-10-19T23:22:21.870Z,13.80
2023-10-19T23:24:51.155Z,13.70
2023-10-19T23:27:18.756Z,13.70
2023-10-19T23:29:46.964Z,13.70
2023-10-19T23:32:15.344Z,13.70
2023-10-19T23:34:43.005Z,13.70
2023-10-19T23:37:15.023Z,13.70
2023-10-19T23:39:48.277Z,13.70
2023-10-19T23:42:15.851Z,13.70
2023-10-19T23:44:43.242Z,13.70
2023-10-19T23:47:11.992Z,13.70
2023-10-19T23:49:41.932Z,13.60
2023-10-19T23:52:09.128Z,13.70
2023-10-19T23:54:36.787Z,13.60
2023-10-19T23:57:04.263Z,13.60
2023-10-19T23:59:31.984Z,13.70
